Goodyears Corners, New York
Current Conditions -  °F | °C
As of 1:56 AM on Thursday 18 Dec 2014 (Local Time) from KITH Reporting Station
Light Snow Light Snow  
Wind Chill: 21°   Ceiling: 1600
Heat Index: 30°   Visibility: 6mi
Dew Point: 28°   Wind: 12mph
Humidity: 92%   Direction: 290°WNW
Pressure: 29.95"   Gusts: NA
Location:  42.6734°N, 76.6263°W
Report Text: KITH 180656Z AUTO 29010KT 6SM -SN BR SCT007 OVC016 M01/M02 A2995 RMK AO2 T10111022 P0000 SLP152
Loading
Personal Weather Stations






























Interactive Weather Map New forecast layout! Learn more

10-Day Weather Forecast

Advertisements
Track Severe Weather on mobile